createdAt,value
2017-10-21T00:00:38.147Z,1005.7
2017-10-21T00:01:40.578Z,1005.7
2017-10-21T00:02:43.010Z,1005.7
2017-10-21T00:03:45.794Z,1005.7
2017-10-21T00:04:48.222Z,1005.7
2017-10-21T00:05:50.643Z,1005.7
2017-10-21T00:06:53.099Z,1005.7
2017-10-21T00:07:55.634Z,1005.7
2017-10-21T00:08:58.055Z,1005.6
2017-10-21T00:10:00.490Z,1005.6
2017-10-21T00:11:02.910Z,1005.7
2017-10-21T00:12:05.346Z,1005.6
2017-10-21T00:13:07.777Z,1005.6
2017-10-21T00:14:10.201Z,1005.6
2017-10-21T00:15:12.981Z,1005.6
2017-10-21T00:16:15.426Z,1005.6
2017-10-21T00:17:17.847Z,1005.6
2017-10-21T00:18:20.285Z,1005.6
2017-10-21T00:19:22.714Z,1005.6
2017-10-21T00:20:25.150Z,1005.7
2017-10-21T00:21:27.587Z,1005.7
2017-10-21T00:22:30.022Z,1005.6
2017-10-21T00:23:32.446Z,1005.7
2017-10-21T00:24:34.874Z,1005.7
2017-10-21T00:25:37.308Z,1005.7
2017-10-21T00:26:39.731Z,1005.7
2017-10-21T00:27:42.154Z,1005.7
2017-10-21T00:28:44.969Z,1005.7
2017-10-21T00:29:47.391Z,1005.7
2017-10-21T00:30:50.216Z,1005.8
2017-10-21T00:31:52.648Z,1005.7
2017-10-21T00:32:55.408Z,1005.7
2017-10-21T00:33:57.837Z,1005.8
2017-10-21T00:35:00.266Z,1005.8
2017-10-21T00:36:02.693Z,1005.7
2017-10-21T00:37:05.477Z,1005.7
2017-10-21T00:38:07.906Z,1005.8
2017-10-21T00:39:10.329Z,1005.8
2017-10-21T00:40:12.768Z,1005.8
2017-10-21T00:41:15.201Z,1005.7
2017-10-21T00:42:17.621Z,1005.7
2017-10-21T00:43:20.055Z,1005.7
2017-10-21T00:44:22.489Z,1005.7
2017-10-21T00:45:24.907Z,1005.7
2017-10-21T00:46:27.338Z,1005.7
2017-10-21T00:47:29.757Z,1005.7
2017-10-21T00:48:32.187Z,1005.7
2017-10-21T00:49:34.622Z,1005.7
2017-10-21T00:50:37.099Z,1005.7
2017-10-21T00:51:39.530Z,1005.7
2017-10-21T00:52:41.955Z,1005.7
2017-10-21T00:53:44.375Z,1005.7
2017-10-21T00:54:46.823Z,1005.7
2017-10-21T00:55:49.255Z,1005.7
2017-10-21T00:56:51.667Z,1005.7
2017-10-21T00:57:54.102Z,1005.6
2017-10-21T00:58:56.881Z,1005.7
2017-10-21T00:59:59.307Z,1005.6
2017-10-21T01:01:01.743Z,1005.6
2017-10-21T01:02:04.167Z,1005.6
2017-10-21T01:03:06.598Z,1005.6
2017-10-21T01:04:09.018Z,1005.6
2017-10-21T01:05:11.448Z,1005.6
2017-10-21T01:06:14.229Z,1005.6
2017-10-21T01:07:16.661Z,1005.6
2017-10-21T01:08:19.095Z,1005.7
2017-10-21T01:09:21.519Z,1005.6
2017-10-21T01:10:23.953Z,1005.7
2017-10-21T01:11:26.388Z,1005.6
2017-10-21T01:12:28.818Z,1005.6
2017-10-21T01:13:31.251Z,1005.6
2017-10-21T01:14:33.671Z,1005.7
2017-10-21T01:15:36.105Z,1005.7
2017-10-21T01:16:38.534Z,1005.6
2017-10-21T01:17:40.967Z,1005.6
2017-10-21T01:18:43.385Z,1005.6
2017-10-21T01:19:45.824Z,1005.6
2017-10-21T01:20:48.249Z,1005.6
2017-10-21T01:21:50.703Z,1005.6
2017-10-21T01:22:53.132Z,1005.7
2017-10-21T01:23:55.551Z,1005.6
2017-10-21T01:24:57.986Z,1005.6
2017-10-21T01:26:00.428Z,1005.7
2017-10-21T01:27:02.855Z,1005.6
2017-10-21T01:28:05.284Z,1005.6
2017-10-21T01:29:07.706Z,1005.7
2017-10-21T01:30:10.490Z,1005.7
2017-10-21T01:31:13.285Z,1005.6
2017-10-21T01:32:15.721Z,1005.7
2017-10-21T01:33:18.151Z,1005.6
2017-10-21T01:34:20.579Z,1005.6
2017-10-21T01:35:23.371Z,1005.7
2017-10-21T01:36:25.800Z,1005.7
2017-10-21T01:37:28.581Z,1005.6
2017-10-21T01:38:31.008Z,1005.6
2017-10-21T01:39:33.440Z,1005.6
2017-10-21T01:40:35.871Z,1005.6
2017-10-21T01:41:38.300Z,1005.6
2017-10-21T01:42:40.723Z,1005.6
2017-10-21T01:43:43.143Z,1005.6
2017-10-21T01:44:45.571Z,1005.6
2017-10-21T01:45:48.010Z,1005.6
2017-10-21T01:46:50.776Z,1005.6
2017-10-21T01:47:53.200Z,1005.6
2017-10-21T01:48:55.634Z,1005.6
2017-10-21T01:49:58.077Z,1005.6
2017-10-21T01:51:00.493Z,1005.6
2017-10-21T01:52:02.929Z,1005.6
2017-10-21T01:53:05.357Z,1005.6
2017-10-21T01:54:07.800Z,1005.6
2017-10-21T01:55:10.238Z,1005.6
2017-10-21T01:56:12.650Z,1005.6
2017-10-21T01:57:15.078Z,1005.6
2017-10-21T01:58:17.509Z,1005.6
2017-10-21T01:59:20.307Z,1005.7
2017-10-21T02:00:22.731Z,1005.6
2017-10-21T02:01:25.178Z,1005.6
2017-10-21T02:02:27.603Z,1005.6
2017-10-21T02:03:30.023Z,1005.6
2017-10-21T02:04:32.454Z,1005.6
2017-10-21T02:05:34.883Z,1005.6
2017-10-21T02:06:37.313Z,1005.6
2017-10-21T02:07:39.746Z,1005.6
2017-10-21T02:08:42.167Z,1005.6
2017-10-21T02:09:44.595Z,1005.6
2017-10-21T02:10:47.035Z,1005.6
2017-10-21T02:11:49.454Z,1005.6
2017-10-21T02:12:51.884Z,1005.6
2017-10-21T02:13:54.314Z,1005.6
2017-10-21T02:14:56.745Z,1005.5
2017-10-21T02:15:59.177Z,1005.6
2017-10-21T02:17:01.600Z,1005.6
2017-10-21T02:18:04.021Z,1005.6
2017-10-21T02:19:06.464Z,1005.6
2017-10-21T02:20:08.878Z,1005.6
2017-10-21T02:21:11.314Z,1005.6
2017-10-21T02:22:14.089Z,1005.6
2017-10-21T02:23:16.523Z,1005.6
2017-10-21T02:24:18.953Z,1005.6
2017-10-21T02:25:21.393Z,1005.6
2017-10-21T02:26:23.829Z,1005.6
2017-10-21T02:27:26.246Z,1005.6
2017-10-21T02:28:28.669Z,1005.5
2017-10-21T02:29:31.474Z,1005.5
2017-10-21T02:30:33.890Z,1005.5
2017-10-21T02:31:36.333Z,1005.6
2017-10-21T02:32:38.759Z,1005.6
2017-10-21T02:33:41.207Z,1005.6
2017-10-21T02:34:43.620Z,1005.6
2017-10-21T02:35:46.053Z,1005.6
2017-10-21T02:36:48.487Z,1005.6
2017-10-21T02:37:50.910Z,1005.6
2017-10-21T02:38:53.333Z,1005.5
2017-10-21T02:39:55.758Z,1005.5
2017-10-21T02:40:58.180Z,1005.5
2017-10-21T02:42:00.622Z,1005.5
2017-10-21T02:43:03.050Z,1005.6
2017-10-21T02:44:05.470Z,1005.6
2017-10-21T02:45:07.910Z,1005.5
2017-10-21T02:46:10.695Z,1005.6
2017-10-21T02:47:13.128Z,1005.6
2017-10-21T02:48:15.563Z,1005.6
2017-10-21T02:49:17.988Z,1005.6
2017-10-21T02:50:20.423Z,1005.6
2017-10-21T02:51:22.854Z,1005.6
2017-10-21T02:52:25.272Z,1005.6
2017-10-21T02:53:27.717Z,1005.6
2017-10-21T02:54:30.137Z,1005.6
2017-10-21T02:55:32.566Z,1005.6
2017-10-21T02:56:35.352Z,1005.6
2017-10-21T02:57:37.776Z,1005.6
2017-10-21T02:58:40.203Z,1005.7
2017-10-21T02:59:42.632Z,1005.7
2017-10-21T03:00:45.068Z,1005.7
2017-10-21T03:01:47.850Z,1005.7
2017-10-21T03:02:50.315Z,1005.7
2017-10-21T03:03:52.715Z,1005.7
2017-10-21T03:04:55.142Z,1005.7
2017-10-21T03:05:57.570Z,1005.7
2017-10-21T03:07:00.345Z,1005.7
2017-10-21T03:08:02.775Z,1005.7
2017-10-21T03:09:05.193Z,1005.8
2017-10-21T03:10:07.628Z,1005.8
2017-10-21T03:11:10.057Z,1005.7
2017-10-21T03:12:12.840Z,1005.7
2017-10-21T03:13:15.273Z,1005.7
2017-10-21T03:14:17.704Z,1005.8
2017-10-21T03:15:20.137Z,1005.8
2017-10-21T03:16:22.571Z,1005.8
2017-10-21T03:17:24.995Z,1005.8
2017-10-21T03:18:27.415Z,1005.8
2017-10-21T03:19:30.210Z,1005.8
2017-10-21T03:20:32.635Z,1005.8
2017-10-21T03:21:35.058Z,1005.8
2017-10-21T03:22:37.482Z,1005.8
2017-10-21T03:23:39.903Z,1005.8
2017-10-21T03:24:42.332Z,1005.8
2017-10-21T03:25:44.772Z,1005.8
2017-10-21T03:26:47.184Z,1005.8
2017-10-21T03:27:49.617Z,1005.8
2017-10-21T03:28:52.054Z,1005.8
2017-10-21T03:29:54.482Z,1005.8
2017-10-21T03:30:56.917Z,1005.8
2017-10-21T03:31:59.336Z,1005.8
2017-10-21T03:33:01.769Z,1005.8
2017-10-21T03:34:04.190Z,1005.8
2017-10-21T03:35:06.620Z,1005.8
2017-10-21T03:36:09.038Z,1005.8
2017-10-21T03:37:11.460Z,1005.8
2017-10-21T03:38:13.896Z,1005.8
2017-10-21T03:39:16.333Z,1005.8
2017-10-21T03:40:18.761Z,1005.8
2017-10-21T03:41:21.190Z,1005.8
2017-10-21T03:42:23.610Z,1005.8
2017-10-21T03:43:26.052Z,1005.8
2017-10-21T03:44:28.469Z,1005.8
2017-10-21T03:45:31.265Z,1005.8
2017-10-21T03:46:33.689Z,1005.8
2017-10-21T03:47:36.130Z,1005.8
2017-10-21T03:48:38.541Z,1005.8
2017-10-21T03:49:41.365Z,1005.9
2017-10-21T03:50:43.778Z,1005.9
2017-10-21T03:51:46.220Z,1005.9
2017-10-21T03:52:48.637Z,1005.9
2017-10-21T03:53:51.075Z,1005.9
2017-10-21T03:54:53.513Z,1005.9
2017-10-21T03:55:55.936Z,1005.9
2017-10-21T03:56:58.370Z,1005.9
2017-10-21T03:58:00.803Z,1005.8
2017-10-21T03:59:03.614Z,1005.9
2017-10-21T04:00:06.038Z,1005.9
2017-10-21T04:01:08.466Z,1005.9
2017-10-21T04:02:10.895Z,1005.9
2017-10-21T04:03:13.323Z,1005.9
2017-10-21T04:04:15.771Z,1005.9
2017-10-21T04:05:18.559Z,1005.9
2017-10-21T04:06:20.977Z,1005.9
2017-10-21T04:07:23.428Z,1005.9
2017-10-21T04:08:25.860Z,1005.9
2017-10-21T04:09:28.289Z,1005.9
2017-10-21T04:10:30.719Z,1005.8
2017-10-21T04:11:33.140Z,1005.9
2017-10-21T04:12:35.571Z,1005.8
2017-10-21T04:13:37.992Z,1005.9
2017-10-21T04:14:40.421Z,1005.8
2017-10-21T04:15:43.207Z,1005.9
2017-10-21T04:16:45.650Z,1005.9
2017-10-21T04:17:48.080Z,1005.9
2017-10-21T04:18:50.502Z,1005.9
2017-10-21T04:19:52.938Z,1005.9
2017-10-21T04:20:55.711Z,1005.9
2017-10-21T04:21:58.149Z,1005.9
2017-10-21T04:23:00.583Z,1005.9
2017-10-21T04:24:03.005Z,1005.9
2017-10-21T04:25:05.434Z,1005.9
2017-10-21T04:26:07.870Z,1005.9
2017-10-21T04:27:10.294Z,1005.9
2017-10-21T04:28:12.719Z,1005.9
2017-10-21T04:29:15.145Z,1005.9
2017-10-21T04:30:17.570Z,1005.9
2017-10-21T04:31:20.341Z,1005.9
2017-10-21T04:32:22.764Z,1005.9
2017-10-21T04:33:25.195Z,1005.9
2017-10-21T04:34:27.627Z,1005.9
2017-10-21T04:35:30.055Z,1005.9
2017-10-21T04:36:32.482Z,1005.9
2017-10-21T04:37:34.917Z,1005.9
2017-10-21T04:38:37.349Z,1005.9
2017-10-21T04:39:39.778Z,1005.9
2017-10-21T04:40:42.197Z,1005.9
2017-10-21T04:41:44.619Z,1005.9
2017-10-21T04:42:47.046Z,1005.8
2017-10-21T04:43:49.478Z,1005.9
2017-10-21T04:44:51.901Z,1005.9
2017-10-21T04:45:54.326Z,1005.9
2017-10-21T04:46:56.758Z,1005.9
2017-10-21T04:47:59.184Z,1005.9
2017-10-21T04:49:01.618Z,1005.9
2017-10-21T04:50:04.039Z,1005.9
2017-10-21T04:51:06.472Z,1005.9
2017-10-21T04:52:08.898Z,1005.9
2017-10-21T04:53:11.377Z,1005.9
2017-10-21T04:54:13.753Z,1005.9
2017-10-21T04:55:16.177Z,1005.9
2017-10-21T04:56:18.602Z,1005.9
2017-10-21T04:57:21.037Z,1005.9
2017-10-21T04:58:23.458Z,1005.9
2017-10-21T04:59:25.882Z,1005.9
2017-10-21T05:00:28.313Z,1005.9
2017-10-21T05:01:30.744Z,1005.9
2017-10-21T05:02:33.172Z,1005.9
2017-10-21T05:03:35.596Z,1005.9
2017-10-21T05:04:38.420Z,1005.9
2017-10-21T05:05:40.837Z,1005.9
2017-10-21T05:06:43.274Z,1005.9
2017-10-21T05:07:45.699Z,1005.9
2017-10-21T05:08:48.124Z,1005.9
2017-10-21T05:09:50.910Z,1005.9
2017-10-21T05:10:53.339Z,1005.9
2017-10-21T05:11:55.765Z,1005.9
2017-10-21T05:12:58.196Z,1005.9
2017-10-21T05:14:00.623Z,1005.9
2017-10-21T05:15:03.049Z,1005.9
2017-10-21T05:16:05.480Z,1005.9
2017-10-21T05:17:07.912Z,1005.9
2017-10-21T05:18:10.343Z,1005.9
2017-10-21T05:19:12.776Z,1005.9
2017-10-21T05:20:15.205Z,1005.9
2017-10-21T05:21:17.633Z,1005.8
2017-10-21T05:22:20.058Z,1005.9
2017-10-21T05:23:22.495Z,1005.9
2017-10-21T05:24:24.913Z,1005.9
2017-10-21T05:25:27.348Z,1005.9
2017-10-21T05:26:29.773Z,1005.9
2017-10-21T05:27:32.198Z,1005.9
2017-10-21T05:28:34.633Z,1006
2017-10-21T05:29:37.060Z,1005.9
2017-10-21T05:30:39.491Z,1006
2017-10-21T05:31:41.916Z,1006
2017-10-21T05:32:44.354Z,1006
2017-10-21T05:33:46.774Z,1006
2017-10-21T05:34:49.198Z,1005.9
2017-10-21T05:35:51.626Z,1006
2017-10-21T05:36:54.061Z,1006
2017-10-21T05:37:56.491Z,1006
2017-10-21T05:38:58.924Z,1006
2017-10-21T05:40:01.337Z,1006
2017-10-21T05:41:03.764Z,1006
2017-10-21T05:42:06.206Z,1006
2017-10-21T05:43:08.635Z,1006
2017-10-21T05:44:11.055Z,1006
2017-10-21T05:45:13.487Z,1006
2017-10-21T05:46:15.908Z,1006
2017-10-21T05:47:18.371Z,1006
2017-10-21T05:48:20.832Z,1006
2017-10-21T05:49:23.231Z,1006
2017-10-21T05:50:25.657Z,1006
2017-10-21T05:51:28.087Z,1006
2017-10-21T05:52:30.518Z,1006.1
2017-10-21T05:53:32.944Z,1006
2017-10-21T05:54:35.361Z,1006.1
2017-10-21T05:55:37.787Z,1006.1
2017-10-21T05:56:40.218Z,1006
2017-10-21T05:57:42.647Z,1006.1
2017-10-21T05:58:45.073Z,1006.1
2017-10-21T05:59:47.502Z,1006.1
2017-10-21T06:00:49.931Z,1006.1
2017-10-21T06:01:52.356Z,1006.1
2017-10-21T06:02:54.782Z,1006.1
2017-10-21T06:03:57.215Z,1006.2
2017-10-21T06:04:59.633Z,1006.1
2017-10-21T06:06:02.061Z,1006.2
2017-10-21T06:07:04.491Z,1006.1
2017-10-21T06:08:06.919Z,1006.2
2017-10-21T06:09:09.350Z,1006.2
2017-10-21T06:10:11.779Z,1006.2
2017-10-21T06:11:14.212Z,1006.2
2017-10-21T06:12:16.649Z,1006.1
2017-10-21T06:13:19.072Z,1006.1
2017-10-21T06:14:21.515Z,1006.1
2017-10-21T06:15:23.942Z,1006.1
2017-10-21T06:16:26.373Z,1006.1
2017-10-21T06:17:28.802Z,1006.2
2017-10-21T06:18:31.590Z,1006.1
2017-10-21T06:19:34.018Z,1006.1
2017-10-21T06:20:36.436Z,1006.2
2017-10-21T06:21:38.865Z,1006.2
2017-10-21T06:22:41.282Z,1006.2
2017-10-21T06:23:43.712Z,1006.2
2017-10-21T06:24:46.513Z,1006.2
2017-10-21T06:25:49.294Z,1006.2
2017-10-21T06:26:51.730Z,1006.2
2017-10-21T06:27:54.166Z,1006.3
2017-10-21T06:28:56.603Z,1006.3
2017-10-21T06:29:59.018Z,1006.3
2017-10-21T06:31:01.441Z,1006.2
2017-10-21T06:32:03.873Z,1006.3
2017-10-21T06:33:06.308Z,1006.3
2017-10-21T06:34:08.725Z,1006.3
2017-10-21T06:35:11.155Z,1006.3
2017-10-21T06:36:14.283Z,1006.3
2017-10-21T06:37:16.721Z,1006.3
2017-10-21T06:38:19.154Z,1006.3
2017-10-21T06:39:21.930Z,1006.4
2017-10-21T06:40:24.363Z,1006.4
2017-10-21T06:41:26.786Z,1006.4
2017-10-21T06:42:29.293Z,1006.5
2017-10-21T06:43:32.109Z,1006.4
2017-10-21T06:44:34.888Z,1006.4
2017-10-21T06:45:37.314Z,1006.4
2017-10-21T06:46:39.756Z,1006.5
2017-10-21T06:47:42.534Z,1006.4
2017-10-21T06:48:44.967Z,1006.5
2017-10-21T06:49:47.395Z,1006.5
2017-10-21T06:50:49.818Z,1006.5
2017-10-21T06:51:52.260Z,1006.5
2017-10-21T06:52:54.690Z,1006.5
2017-10-21T06:53:57.162Z,1006.5
2017-10-21T06:54:59.604Z,1006.5
2017-10-21T06:56:02.041Z,1006.6
2017-10-21T06:57:04.481Z,1006.5
2017-10-21T06:58:06.931Z,1006.5
2017-10-21T06:59:09.371Z,1006.5
2017-10-21T07:00:11.813Z,1006.5
2017-10-21T07:01:14.236Z,1006.5
2017-10-21T07:02:16.671Z,1006.5
2017-10-21T07:03:19.110Z,1006.5
2017-10-21T07:04:21.543Z,1006.5
2017-10-21T07:05:23.978Z,1006.5
2017-10-21T07:06:26.409Z,1006.6
2017-10-21T07:07:28.847Z,1006.5
2017-10-21T07:08:31.282Z,1006.5
2017-10-21T07:09:33.729Z,1006.5
2017-10-21T07:10:36.148Z,1006.5
2017-10-21T07:11:38.981Z,1006.5
2017-10-21T07:12:41.415Z,1006.5
2017-10-21T07:13:43.845Z,1006.5
2017-10-21T07:14:46.284Z,1006.5
2017-10-21T07:15:48.719Z,1006.5
2017-10-21T07:16:51.151Z,1006.5
2017-10-21T07:17:53.587Z,1006.5
2017-10-21T07:18:56.036Z,1006.5
2017-10-21T07:19:58.465Z,1006.5
2017-10-21T07:21:00.909Z,1006.6
2017-10-21T07:22:03.342Z,1006.6
2017-10-21T07:23:05.800Z,1006.6
2017-10-21T07:24:08.255Z,1006.6
2017-10-21T07:25:10.685Z,1006.5
2017-10-21T07:26:13.142Z,1006.6
2017-10-21T07:27:15.566Z,1006.5
2017-10-21T07:28:18.022Z,1006.5
2017-10-21T07:29:20.458Z,1006.5
2017-10-21T07:30:22.890Z,1006.5
2017-10-21T07:31:25.343Z,1006.6
2017-10-21T07:32:27.783Z,1006.6
2017-10-21T07:33:30.217Z,1006.6
2017-10-21T07:34:32.666Z,1006.6
2017-10-21T07:35:35.105Z,1006.6
2017-10-21T07:36:37.546Z,1006.6
2017-10-21T07:37:39.983Z,1006.6
2017-10-21T07:38:42.420Z,1006.6
2017-10-21T07:39:44.867Z,1006.6
2017-10-21T07:40:47.298Z,1006.7
2017-10-21T07:41:49.722Z,1006.7
2017-10-21T07:42:52.154Z,1006.7
2017-10-21T07:43:54.599Z,1006.7
2017-10-21T07:44:57.022Z,1006.7
2017-10-21T07:45:59.981Z,1006.7
2017-10-21T07:47:02.421Z,1006.7
2017-10-21T07:48:04.860Z,1006.7
2017-10-21T07:49:07.297Z,1006.7
2017-10-21T07:50:09.732Z,1006.6
2017-10-21T07:51:12.212Z,1006.7
2017-10-21T07:52:14.969Z,1006.7
2017-10-21T07:53:17.431Z,1006.7
2017-10-21T07:54:19.877Z,1006.6
2017-10-21T07:55:22.305Z,1006.7
2017-10-21T07:56:24.753Z,1006.7
2017-10-21T07:57:27.193Z,1006.6
2017-10-21T07:58:29.621Z,1006.6
2017-10-21T07:59:32.058Z,1006.6
2017-10-21T08:00:34.526Z,1006.6
2017-10-21T08:01:36.969Z,1006.7
2017-10-21T08:02:39.403Z,1006.7
2017-10-21T08:03:41.832Z,1006.7
2017-10-21T08:04:44.618Z,1006.6
2017-10-21T08:05:47.055Z,1006.7
2017-10-21T08:06:49.492Z,1006.7
2017-10-21T08:07:51.915Z,1006.7
2017-10-21T08:08:54.355Z,1006.7
2017-10-21T08:09:56.793Z,1006.7
2017-10-21T08:10:59.221Z,1006.7
2017-10-21T08:12:01.673Z,1006.7
2017-10-21T08:13:04.104Z,1006.7
2017-10-21T08:14:06.541Z,1006.7
2017-10-21T08:15:08.982Z,1006.7
2017-10-21T08:16:11.410Z,1006.7
2017-10-21T08:17:13.851Z,1006.8
2017-10-21T08:18:16.308Z,1006.7
2017-10-21T08:19:18.715Z,1006.7
2017-10-21T08:21:05.977Z,1006.7
2017-10-21T08:22:08.364Z,1006.8
2017-10-21T08:23:10.741Z,1006.7
2017-10-21T08:24:13.120Z,1006.7
2017-10-21T08:25:15.513Z,1006.7
2017-10-21T08:26:17.889Z,1006.7
2017-10-21T08:27:20.256Z,1006.7
2017-10-21T08:28:22.628Z,1006.7
2017-10-21T08:29:25.013Z,1006.7
2017-10-21T08:30:27.389Z,1006.7
2017-10-21T08:31:29.765Z,1006.7
2017-10-21T08:32:32.148Z,1006.7
2017-10-21T08:33:34.527Z,1006.7
2017-10-21T08:34:36.918Z,1006.7
2017-10-21T08:35:39.648Z,1006.7
2017-10-21T08:36:42.023Z,1006.7
2017-10-21T08:37:44.409Z,1006.7
2017-10-21T08:38:46.784Z,1006.7
2017-10-21T08:39:49.158Z,1006.7
2017-10-21T08:40:51.544Z,1006.7
2017-10-21T08:41:53.911Z,1006.8
2017-10-21T08:42:56.288Z,1006.7
2017-10-21T08:43:58.676Z,1006.7
2017-10-21T08:45:01.398Z,1006.8
2017-10-21T08:46:03.776Z,1006.8
2017-10-21T08:47:06.158Z,1006.8
2017-10-21T08:48:08.530Z,1006.8
2017-10-21T08:49:10.916Z,1006.8
2017-10-21T08:50:13.291Z,1006.8
2017-10-21T08:51:15.657Z,1006.8
2017-10-21T08:52:18.045Z,1006.7
2017-10-21T08:53:20.423Z,1006.7
2017-10-21T08:54:22.800Z,1006.8
2017-10-21T08:55:25.176Z,1006.8
2017-10-21T08:56:27.557Z,1006.8
2017-10-21T08:57:29.927Z,1006.8
2017-10-21T08:58:32.325Z,1006.8
2017-10-21T08:59:34.763Z,1006.8
2017-10-21T09:00:37.188Z,1006.8
2017-10-21T09:01:40.331Z,1006.8
2017-10-21T09:02:42.774Z,1006.8
2017-10-21T09:03:45.206Z,1006.8
2017-10-21T09:04:47.648Z,1006.8
2017-10-21T09:05:50.078Z,1006.7
2017-10-21T09:06:52.506Z,1006.8
2017-10-21T09:07:55.301Z,1006.7
2017-10-21T09:08:57.742Z,1006.7
2017-10-21T09:10:00.168Z,1006.8
2017-10-21T09:11:02.619Z,1006.8
2017-10-21T09:12:05.518Z,1006.8
2017-10-21T09:13:07.969Z,1006.8
2017-10-21T09:14:10.382Z,1006.8
2017-10-21T09:15:13.058Z,1006.8
2017-10-21T09:16:15.499Z,1006.8
2017-10-21T09:17:17.947Z,1006.8
2017-10-21T09:18:21.314Z,1006.8
2017-10-21T09:19:23.741Z,1006.8
2017-10-21T09:20:26.320Z,1006.8
2017-10-21T09:21:28.863Z,1006.8
2017-10-21T09:22:31.292Z,1006.8
2017-10-21T09:23:33.728Z,1006.8
2017-10-21T09:24:36.145Z,1006.7
2017-10-21T09:25:38.580Z,1006.8
2017-10-21T09:26:41.014Z,1006.8
2017-10-21T09:27:43.554Z,1006.8
2017-10-21T09:28:45.995Z,1006.8
2017-10-21T09:29:48.437Z,1006.8
2017-10-21T09:30:50.878Z,1006.8
2017-10-21T09:31:53.310Z,1006.8
2017-10-21T09:32:55.755Z,1006.8
2017-10-21T09:33:58.193Z,1006.8
2017-10-21T09:35:00.623Z,1006.8
2017-10-21T09:36:03.212Z,1006.8
2017-10-21T09:37:05.641Z,1006.8
2017-10-21T09:38:08.074Z,1006.7
2017-10-21T09:39:10.516Z,1006.7
2017-10-21T09:40:12.943Z,1006.8
2017-10-21T09:41:15.384Z,1006.7
2017-10-21T09:42:17.817Z,1006.7
2017-10-21T09:43:20.242Z,1006.7
2017-10-21T09:44:22.637Z,1006.7
2017-10-21T09:45:25.035Z,1006.7
2017-10-21T09:46:27.432Z,1006.7
2017-10-21T09:47:29.830Z,1006.7
2017-10-21T09:48:32.223Z,1006.7
2017-10-21T09:49:34.620Z,1006.7
2017-10-21T09:50:37.023Z,1006.7
2017-10-21T09:51:39.430Z,1006.7
2017-10-21T09:52:41.826Z,1006.7
2017-10-21T09:53:45.235Z,1006.7
2017-10-21T09:54:53.117Z,1006.7
2017-10-21T09:55:58.539Z,1006.7
2017-10-21T09:57:07.240Z,1006.7
2017-10-21T09:58:15.409Z,1006.7
2017-10-21T09:59:19.467Z,1006.7
2017-10-21T10:00:26.192Z,1006.7
2017-10-21T10:01:34.693Z,1006.7
2017-10-21T10:02:44.393Z,1006.7
2017-10-21T10:03:51.100Z,1006.6
2017-10-21T10:05:01.716Z,1006.6
2017-10-21T10:06:09.110Z,1006.6
2017-10-21T10:07:20.312Z,1006.6
2017-10-21T10:08:30.126Z,1006.6
2017-10-21T10:09:40.698Z,1006.7
2017-10-21T10:10:48.757Z,1006.7
2017-10-21T10:11:58.173Z,1006.7
2017-10-21T10:13:08.531Z,1006.7
2017-10-21T10:14:18.269Z,1006.7
2017-10-21T10:15:25.311Z,1006.7
2017-10-21T10:16:34.270Z,1006.7
2017-10-21T10:17:43.144Z,1006.7
2017-10-21T10:18:47.284Z,1006.7
2017-10-21T10:19:58.750Z,1006.7
2017-10-21T10:21:05.247Z,1006.7
2017-10-21T10:22:12.674Z,1006.6
2017-10-21T10:23:15.077Z,1006.6
2017-10-21T10:24:17.476Z,1006.6
2017-10-21T10:25:19.866Z,1006.6
2017-10-21T10:26:22.270Z,1006.6
2017-10-21T10:27:24.659Z,1006.6
2017-10-21T10:28:27.056Z,1006.6
2017-10-21T10:29:29.456Z,1006.6
2017-10-21T10:30:31.852Z,1006.6
2017-10-21T10:31:34.250Z,1006.6
2017-10-21T10:32:36.649Z,1006.6
2017-10-21T10:33:39.054Z,1006.6
2017-10-21T10:34:41.448Z,1006.6
2017-10-21T10:35:43.853Z,1006.5
2017-10-21T10:36:46.241Z,1006.5
2017-10-21T10:37:48.638Z,1006.5
2017-10-21T10:38:51.039Z,1006.5
2017-10-21T10:39:53.435Z,1006.5
2017-10-21T10:40:55.834Z,1006.5
2017-10-21T10:41:58.235Z,1006.5
2017-10-21T10:43:00.637Z,1006.5
2017-10-21T10:44:03.038Z,1006.5
2017-10-21T10:45:05.442Z,1006.5
2017-10-21T10:46:07.848Z,1006.5
2017-10-21T10:47:10.247Z,1006.4
2017-10-21T10:48:12.642Z,1006.4
2017-10-21T10:49:15.040Z,1006.4
2017-10-21T10:50:17.441Z,1006.4
2017-10-21T10:51:19.842Z,1006.4
2017-10-21T10:52:22.240Z,1006.4
2017-10-21T10:53:24.641Z,1006.4
2017-10-21T10:54:27.410Z,1006.3
2017-10-21T10:55:29.808Z,1006.4
2017-10-21T10:56:32.208Z,1006.3
2017-10-21T10:57:34.606Z,1006.3
2017-10-21T10:58:37.004Z,1006.3
2017-10-21T10:59:39.401Z,1006.3
2017-10-21T11:00:41.795Z,1006.2
2017-10-21T11:01:44.197Z,1006.3
2017-10-21T11:02:46.592Z,1006.2
2017-10-21T11:03:49.714Z,1006.2
2017-10-21T11:04:52.111Z,1006.2
2017-10-21T11:05:54.511Z,1006.2
2017-10-21T11:06:56.909Z,1006.2
2017-10-21T11:07:59.309Z,1006.2
2017-10-21T11:09:53.026Z,1006.2
2017-10-21T11:10:55.380Z,1006.2
2017-10-21T11:11:57.736Z,1006.2
2017-10-21T11:13:00.092Z,1006.2
2017-10-21T11:14:02.463Z,1006.2
2017-10-21T11:15:04.823Z,1006.2
2017-10-21T11:16:07.180Z,1006.1
2017-10-21T11:17:09.534Z,1006.1
2017-10-21T11:18:11.898Z,1006.1
2017-10-21T11:19:14.254Z,1006.1
2017-10-21T11:20:16.612Z,1006.1
2017-10-21T11:21:18.970Z,1006
2017-10-21T11:22:21.667Z,1006
2017-10-21T11:23:24.024Z,1006
2017-10-21T11:24:26.380Z,1005.9
2017-10-21T11:25:29.436Z,1005.9
2017-10-21T11:26:31.792Z,1005.9
2017-10-21T11:27:34.148Z,1005.9
2017-10-21T11:28:36.508Z,1005.8
2017-10-21T11:29:38.862Z,1005.8
2017-10-21T11:30:41.216Z,1005.8
2017-10-21T11:31:43.570Z,1005.8
2017-10-21T11:32:45.928Z,1005.8
2017-10-21T11:33:48.285Z,1005.8
2017-10-21T11:35:35.514Z,1005.8
2017-10-21T11:36:37.913Z,1005.8
2017-10-21T11:37:40.680Z,1005.8
2017-10-21T11:38:43.083Z,1005.7
2017-10-21T11:39:45.483Z,1005.7
2017-10-21T11:40:47.885Z,1005.7
2017-10-21T11:41:50.295Z,1005.7
2017-10-21T11:42:52.690Z,1005.7
2017-10-21T11:43:55.092Z,1005.7
2017-10-21T11:44:57.494Z,1005.6
2017-10-21T11:45:59.893Z,1005.7
2017-10-21T11:47:02.300Z,1005.7
2017-10-21T11:48:04.693Z,1005.6
2017-10-21T11:49:07.090Z,1005.6
2017-10-21T11:50:09.487Z,1005.6
2017-10-21T11:51:11.898Z,1005.6
2017-10-21T11:52:14.415Z,1005.6
2017-10-21T11:53:17.537Z,1005.6
2017-10-21T11:54:21.403Z,1005.6
2017-10-21T11:55:26.905Z,1005.6
2017-10-21T11:56:29.302Z,1005.6
2017-10-21T11:57:31.751Z,1005.6
2017-10-21T11:58:34.145Z,1005.6
2017-10-21T11:59:36.653Z,1005.7
2017-10-21T12:00:39.049Z,1005.6
2017-10-21T12:01:41.485Z,1005.6
2017-10-21T12:02:43.883Z,1005.7
2017-10-21T12:03:46.298Z,1005.6
2017-10-21T12:04:48.735Z,1005.7
2017-10-21T12:05:51.138Z,1005.7
2017-10-21T12:06:53.957Z,1005.6
2017-10-21T12:07:56.430Z,1005.7
2017-10-21T12:08:59.016Z,1005.7
2017-10-21T12:10:01.416Z,1005.7
2017-10-21T12:11:04.205Z,1005.7
2017-10-21T12:12:06.614Z,1005.7
2017-10-21T12:13:09.159Z,1005.7
2017-10-21T12:14:11.563Z,1005.7
2017-10-21T12:15:14.313Z,1005.7
2017-10-21T12:16:16.712Z,1005.7
2017-10-21T12:17:19.111Z,1005.7
2017-10-21T12:18:21.510Z,1005.7
2017-10-21T12:19:24.025Z,1005.7
2017-10-21T12:20:26.414Z,1005.7
2017-10-21T12:21:28.855Z,1005.8
2017-10-21T12:22:31.253Z,1005.8
2017-10-21T12:23:33.647Z,1005.7
2017-10-21T12:24:36.404Z,1005.7
2017-10-21T12:25:39.186Z,1005.8
2017-10-21T12:26:41.618Z,1005.7
2017-10-21T12:27:43.996Z,1005.7
2017-10-21T12:28:46.399Z,1005.7
2017-10-21T12:29:48.798Z,1005.7
2017-10-21T12:30:51.208Z,1005.7
2017-10-21T12:31:53.693Z,1005.7
2017-10-21T12:32:56.092Z,1005.7
2017-10-21T12:33:58.837Z,1005.7
2017-10-21T12:35:01.237Z,1005.6
2017-10-21T12:36:03.650Z,1005.6
2017-10-21T12:37:06.062Z,1005.6
2017-10-21T12:38:08.449Z,1005.6
2017-10-21T12:39:10.861Z,1005.6
2017-10-21T12:40:13.247Z,1005.5
2017-10-21T12:41:15.646Z,1005.5
2017-10-21T12:42:18.045Z,1005.4
2017-10-21T12:43:20.444Z,1005.4
2017-10-21T12:44:22.844Z,1005.4
2017-10-21T12:45:25.243Z,1005.5
2017-10-21T12:46:28.013Z,1005.4
2017-10-21T12:47:30.416Z,1005.5
2017-10-21T12:48:32.832Z,1005.5
2017-10-21T12:49:35.238Z,1005.5
2017-10-21T12:50:37.634Z,1005.5
2017-10-21T12:51:40.037Z,1005.5
2017-10-21T12:52:42.435Z,1005.5
2017-10-21T12:53:45.184Z,1005.4
2017-10-21T12:54:47.664Z,1005.4
2017-10-21T12:55:50.086Z,1005.4
2017-10-21T12:56:52.495Z,1005.4
2017-10-21T12:57:54.901Z,1005.4
2017-10-21T12:58:57.646Z,1005.5
2017-10-21T13:00:00.045Z,1005.5
2017-10-21T13:01:02.441Z,1005.5
2017-10-21T13:02:04.841Z,1005.5
2017-10-21T13:03:07.236Z,1005.5
2017-10-21T13:04:09.643Z,1005.5
2017-10-21T13:05:12.032Z,1005.5
2017-10-21T13:06:14.430Z,1005.6